Skip to content
You are here: Gozo Weather
Gozo Weather Station for the very latest live weather conditions from Gozo and Malta
 
 TIME   TEMPERATURE   WINDSPEED   DIRECTION   HUMIDITY   BAROMETER   RAINFALL 
10:05 16.3°C (61.3°F) 31.5 kmh (19.6 mph) NNW 75% 1011.0hPa (29.85 inHg) 0.0mm (0.00 in.)
9:05 15.8°C (60.4 °F) 18.5 kmh (11.5 mph) WNW 76% 1010.0hPa (29.83 inHg) 0.0mm (0.00 in.)
8:05 14.9°C (58.8 °F) 13.0 kmh (8.1 mph) WNW 75% 1010.0hPa (29.83 inHg) 0.0mm (0.00 in.)
7:05 14.8°C (58.6 °F) 0.0 kmh (0.0 mph) WSW 76% 1009.0hPa (29.80 inHg) 0.0mm (0.00 in.)
6:05 14.8°C (58.6 °F) 0.0 kmh (0.0 mph) SSW 77% 1009.0hPa (29.80 inHg) 0.0mm (0.00 in.)
5:05 14.9°C (58.8 °F) 9.3 kmh (5.8 mph) N 78% 1009.0hPa (29.80 inHg) 0.0mm (0.00 in.)
4:05 15.3°C (59.5 °F) 0.0 kmh (0.0 mph) WSW 78% 1010.0hPa (29.83 inHg) 0.0mm (0.00 in.)
3:05 15.4°C (59.7 °F) 13.0 kmh (8.1 mph) W 77% 1010.0hPa (29.83 inHg) 0.0mm (0.00 in.)
2:05 15.5°C (59.9 °F) 0.0 kmh (0.0 mph) W 76% 1011.0hPa (29.85 inHg) 0.0mm (0.00 in.)
1:05 15.4°C (59.7 °F) 13.0 kmh (8.1 mph) W 75% 1011.0hPa (29.85 inHg) 0.0mm (0.00 in.)
12:05 15.5°C (59.9 °F) 0.0 kmh (0.0 mph) W 74% 1011.0hPa (29.85 inHg) 0.0mm (0.00 in.)
11:05 15.5°C (59.9 °F) 13.0 kmh (8.1 mph) WNW 73% 1011.0hPa (29.85 inHg) 0.0mm (0.00 in.)
10:05 15.6°C (60.1 °F) 16.7 kmh (10.4 mph) W 72% 1012.0hPa (29.88 inHg) 0.0mm (0.00 in.)
9:05 15.7°C (60.3 °F) 16.7 kmh (10.4 mph) W 71% 1011.0hPa (29.85 inHg) 0.0mm (0.00 in.)
8:05 15.9°C (60.6 °F) 14.8 kmh (9.2 mph) W 69% 1011.0hPa (29.85 inHg) 0.0mm (0.00 in.)
7:05 16.2°C (61.2 °F) 18.5 kmh (11.5 mph) W 68% 1011.0hPa (29.85 inHg) 0.0mm (0.00 in.)
6:05 17.0°C (62.6 °F) 18.5 kmh (11.5 mph) W 66% 1011.0hPa (29.85 inHg) 0.0mm (0.00 in.)
5:05 17.4°C (63.3 °F) 20.4 kmh (12.7 mph) WSW 65% 1012.0hPa (29.88 inHg) 0.0mm (0.00 in.)
4:05 18.4°C (65.1 °F) 18.5 kmh (11.5 mph) W 65% 1013.0hPa (29.91 inHg) 0.0mm (0.00 in.)
3:05 18.4°C (65.1 °F) 14.8 kmh (9.2 mph) WSW 65% 1013.0hPa (29.91 inHg) 0.0mm (0.00 in.)
2:05 18.8°C (65.8 °F) 13.0 kmh (8.1 mph) W 65% 1014.0hPa (29.94 inHg) 0.0mm (0.00 in.)
1:05 18.5°C (65.3 °F) 22.2 kmh (13.8 mph) W 66% 1014.0hPa (29.94 inHg) 0.0mm (0.00 in.)
12:05 18.2°C (64.8 °F) 16.7 kmh (10.4 mph) W 68% 1015.0hPa (29.97 inHg) 0.0mm (0.00 in.)
11:05 17.6°C (63.7 °F) 18.5 kmh (11.5 mph) WSW 70% 1015.0hPa (29.97 inHg) 0.0mm (0.00 in.)

You need the latest version of Flash Player to view some of our content.


Why not download and install the latest version now?
It will only take you a moment and will ensure that you can view all the latest flash designed websites.

Translate this page

Animated Satellite

Click per aprire http://www.gozo.ws/Animation.php
copyright 2014 EUMETSAT

European Lightning Activity


Please click image for full size

Sponsored Links